createdAt,value
2017-08-29T00:00:12.313Z,19.59
2017-08-29T00:01:12.745Z,19.64
2017-08-29T00:02:12.744Z,19.64
2017-08-29T00:03:12.744Z,19.64
2017-08-29T00:04:12.127Z,19.55
2017-08-29T00:05:12.447Z,19.58
2017-08-29T00:06:12.608Z,19.58
2017-08-29T00:07:12.610Z,19.59
2017-08-29T00:08:12.292Z,19.59
2017-08-29T00:09:12.606Z,19.59
2017-08-29T00:10:12.265Z,19.58
2017-08-29T00:11:12.298Z,19.63
2017-08-29T00:12:12.298Z,19.52
2017-08-29T00:13:12.706Z,19.54
2017-08-29T00:14:12.749Z,19.54
2017-08-29T00:15:12.706Z,19.56
2017-08-29T00:16:12.434Z,19.54
2017-08-29T00:17:12.758Z,19.49
2017-08-29T00:18:12.441Z,19.51
2017-08-29T00:19:12.674Z,19.55
2017-08-29T00:20:13.023Z,19.49
2017-08-29T00:21:12.717Z,19.49
2017-08-29T00:22:12.823Z,19.47
2017-08-29T00:23:12.830Z,19.36
2017-08-29T00:24:13.111Z,19.36
2017-08-29T00:25:13.137Z,19.4
2017-08-29T00:26:12.508Z,19.33
2017-08-29T00:27:13.182Z,19.36
2017-08-29T00:28:13.199Z,19.37
2017-08-29T00:29:13.225Z,19.37
2017-08-29T00:30:12.926Z,19.33
2017-08-29T00:31:13.268Z,19.29
2017-08-29T00:32:12.966Z,19.29
2017-08-29T00:33:13.314Z,19.3
2017-08-29T00:34:13.011Z,19.3
2017-08-29T00:35:12.711Z,19.24
2017-08-29T00:36:13.060Z,19.3
2017-08-29T00:37:13.404Z,19.31
2017-08-29T00:38:13.102Z,19.3
2017-08-29T00:39:13.452Z,19.27
2017-08-29T00:40:13.473Z,19.27
2017-08-29T00:41:13.168Z,19.22
2017-08-29T00:42:12.869Z,19.16
2017-08-29T00:43:13.213Z,19.12
2017-08-29T00:44:12.913Z,19.12
2017-08-29T00:45:13.267Z,19.14
2017-08-29T00:46:13.280Z,19.11
2017-08-29T00:47:13.627Z,19.18
2017-08-29T00:48:13.656Z,19.07
2017-08-29T00:49:13.022Z,19.15
2017-08-29T00:50:13.369Z,19.08
2017-08-29T00:51:13.397Z,19.09
2017-08-29T00:52:13.737Z,19.09
2017-08-29T00:53:13.116Z,19.07
2017-08-29T00:54:13.458Z,18.99
2017-08-29T00:55:13.265Z,19.08
2017-08-29T00:56:13.182Z,18.9
2017-08-29T00:57:13.848Z,19
2017-08-29T00:58:13.226Z,18.96
2017-08-29T00:59:26.622Z,18.9
2017-08-29T01:00:13.586Z,18.92
2017-08-29T01:01:13.929Z,18.96
2017-08-29T01:02:13.631Z,18.93
2017-08-29T01:03:13.970Z,18.93
2017-08-29T01:04:13.351Z,18.89
2017-08-29T01:05:14.019Z,18.96
2017-08-29T01:06:14.036Z,18.84
2017-08-29T01:07:14.097Z,18.92
2017-08-29T01:08:13.770Z,18.93
2017-08-29T01:09:14.106Z,18.86
2017-08-29T01:10:14.128Z,18.88
2017-08-29T01:11:13.829Z,18.92
2017-08-29T01:12:14.179Z,18.83
2017-08-29T01:13:14.197Z,18.88
2017-08-29T01:14:13.896Z,18.81
2017-08-29T01:15:13.920Z,18.88
2017-08-29T01:16:13.618Z,18.8
2017-08-29T01:17:13.978Z,18.81
2017-08-29T01:18:14.308Z,18.8
2017-08-29T01:19:14.327Z,18.78
2017-08-29T01:20:13.704Z,18.77
2017-08-29T01:21:14.376Z,18.74
2017-08-29T01:22:14.081Z,18.8
2017-08-29T01:23:14.412Z,18.7
2017-08-29T01:24:14.126Z,18.65
2017-08-29T01:25:14.142Z,18.71
2017-08-29T01:26:14.484Z,18.7
2017-08-29T01:27:14.373Z,18.7
2017-08-29T01:28:14.527Z,18.73
2017-08-29T01:29:14.223Z,18.7
2017-08-29T01:30:14.573Z,18.66
2017-08-29T01:31:14.268Z,18.56
2017-08-29T01:32:14.610Z,18.62
2017-08-29T01:33:14.636Z,18.59
2017-08-29T01:34:14.012Z,18.58
2017-08-29T01:35:14.688Z,18.56
2017-08-29T01:36:14.464Z,18.62
2017-08-29T01:37:14.759Z,18.6
2017-08-29T01:38:14.423Z,18.59
2017-08-29T01:39:14.447Z,18.62
2017-08-29T01:40:14.510Z,18.56
2017-08-29T01:41:14.172Z,18.53
2017-08-29T01:42:14.829Z,18.56
2017-08-29T01:43:14.859Z,18.53
2017-08-29T01:44:14.555Z,18.49
2017-08-29T01:45:14.259Z,18.55
2017-08-29T01:46:14.929Z,18.5
2017-08-29T01:47:14.622Z,18.45
2017-08-29T01:48:14.969Z,18.47
2017-08-29T01:49:14.665Z,18.5
2017-08-29T01:50:15.012Z,18.37
2017-08-29T01:51:14.710Z,18.43
2017-08-29T01:52:15.132Z,18.43
2017-08-29T01:53:14.759Z,18.43
2017-08-29T01:54:14.772Z,18.43
2017-08-29T01:55:15.123Z,18.38
2017-08-29T01:56:14.494Z,18.33
2017-08-29T01:57:15.291Z,18.37
2017-08-29T01:58:14.947Z,18.44
2017-08-29T01:59:15.205Z,18.4
2017-08-29T02:00:15.105Z,18.34
2017-08-29T02:01:15.249Z,18.28
2017-08-29T02:02:14.948Z,18.29
2017-08-29T02:03:14.971Z,18.28
2017-08-29T02:04:15.315Z,18.31
2017-08-29T02:05:15.338Z,18.22
2017-08-29T02:06:15.034Z,18.34
2017-08-29T02:07:15.378Z,18.29
2017-08-29T02:08:15.077Z,18.22
2017-08-29T02:09:15.104Z,18.18
2017-08-29T02:10:15.442Z,18.26
2017-08-29T02:11:15.143Z,18.23
2017-08-29T02:12:15.764Z,18.22
2017-08-29T02:13:15.504Z,18.18
2017-08-29T02:14:15.211Z,18.1
2017-08-29T02:15:15.709Z,18.19
2017-08-29T02:16:15.570Z,18.1
2017-08-29T02:17:15.600Z,18.16
2017-08-29T02:18:15.302Z,18.19
2017-08-29T02:19:15.314Z,18.16
2017-08-29T02:20:15.341Z,18.11
2017-08-29T02:21:15.705Z,18.18
2017-08-29T02:22:15.060Z,18.07
2017-08-29T02:23:15.736Z,18.1
2017-08-29T02:24:15.757Z,18.16
2017-08-29T02:25:15.128Z,18.1
2017-08-29T02:26:15.793Z,18.13
2017-08-29T02:27:15.812Z,18.07
2017-08-29T02:28:15.834Z,18
2017-08-29T02:29:15.859Z,18
2017-08-29T02:30:15.562Z,18.07
2017-08-29T02:31:15.579Z,18.04
2017-08-29T02:32:15.922Z,18.05
2017-08-29T02:33:15.949Z,18.08
2017-08-29T02:34:47.717Z,18.03
2017-08-29T02:35:15.663Z,18.01
2017-08-29T02:36:16.006Z,18.01
2017-08-29T02:37:16.028Z,18.07
2017-08-29T02:38:15.735Z,18.01
2017-08-29T02:39:15.747Z,17.98
2017-08-29T02:40:15.774Z,18
2017-08-29T02:41:16.108Z,17.92
2017-08-29T02:42:15.505Z,17.98
2017-08-29T02:43:15.851Z,17.98
2017-08-29T02:44:15.857Z,17.95
2017-08-29T02:45:16.207Z,17.82
2017-08-29T02:46:15.910Z,17.89
2017-08-29T02:47:15.920Z,17.89
2017-08-29T02:48:16.276Z,17.89
2017-08-29T02:49:16.287Z,17.85
2017-08-29T02:50:15.996Z,17.86
2017-08-29T02:51:16.338Z,17.86
2017-08-29T02:52:16.026Z,17.82
2017-08-29T02:53:16.378Z,17.83
2017-08-29T02:54:16.395Z,17.9
2017-08-29T02:55:16.094Z,17.8
2017-08-29T02:56:16.114Z,17.82
2017-08-29T02:57:16.137Z,17.79
2017-08-29T02:58:16.480Z,17.74
2017-08-29T02:59:16.500Z,17.79
2017-08-29T03:00:16.198Z,17.74
2017-08-29T03:01:15.903Z,17.76
2017-08-29T03:02:16.729Z,17.78
2017-08-29T03:03:16.263Z,17.78
2017-08-29T03:04:16.284Z,17.76
2017-08-29T03:05:16.309Z,17.68
2017-08-29T03:06:16.650Z,17.7
2017-08-29T03:07:16.678Z,17.65
2017-08-29T03:08:16.376Z,17.71
2017-08-29T03:09:16.392Z,17.79
2017-08-29T03:10:16.733Z,17.72
2017-08-29T03:11:16.755Z,17.79
2017-08-29T03:12:16.784Z,17.67
2017-08-29T03:13:16.798Z,17.76
2017-08-29T03:14:16.820Z,17.74
2017-08-29T03:15:16.890Z,17.65
2017-08-29T03:16:16.220Z,17.65
2017-08-29T03:17:16.570Z,17.67
2017-08-29T03:18:16.904Z,17.64
2017-08-29T03:19:16.926Z,17.68
2017-08-29T03:20:16.949Z,17.68
2017-08-29T03:21:16.970Z,17.57
2017-08-29T03:22:16.992Z,17.63
2017-08-29T03:23:16.367Z,17.54
2017-08-29T03:24:16.731Z,17.64
2017-08-29T03:25:17.061Z,17.56
2017-08-29T03:26:16.754Z,17.56
2017-08-29T03:27:16.776Z,17.57
2017-08-29T03:28:16.796Z,17.59
2017-08-29T03:29:17.140Z,17.52
2017-08-29T03:30:17.170Z,17.51
2017-08-29T03:31:17.180Z,17.54
2017-08-29T03:32:16.558Z,17.52
2017-08-29T03:33:17.224Z,17.52
2017-08-29T03:34:16.607Z,17.54
2017-08-29T03:35:17.264Z,17.52
2017-08-29T03:36:16.964Z,17.52
2017-08-29T03:37:16.988Z,17.59
2017-08-29T03:38:17.009Z,17.48
2017-08-29T03:39:16.703Z,17.49
2017-08-29T03:40:17.047Z,17.49
2017-08-29T03:41:17.072Z,17.46
2017-08-29T03:42:17.415Z,17.54
2017-08-29T03:43:17.435Z,17.49
2017-08-29T03:44:17.137Z,17.52
2017-08-29T03:45:17.159Z,17.41
2017-08-29T03:46:17.195Z,17.36
2017-08-29T03:47:17.204Z,17.38
2017-08-29T03:48:16.895Z,17.41
2017-08-29T03:49:17.240Z,17.41
2017-08-29T03:50:17.585Z,17.41
2017-08-29T03:51:17.282Z,17.45
2017-08-29T03:52:16.982Z,17.41
2017-08-29T03:53:17.325Z,17.34
2017-08-29T03:54:17.347Z,17.36
2017-08-29T03:55:17.703Z,17.38
2017-08-29T03:56:17.391Z,17.34
2017-08-29T03:57:17.410Z,17.36
2017-08-29T03:58:17.753Z,17.34
2017-08-29T03:59:17.452Z,17.34
2017-08-29T04:00:17.793Z,17.3
2017-08-29T04:01:17.493Z,17.38
2017-08-29T04:02:17.838Z,17.27
2017-08-29T04:03:17.866Z,17.34
2017-08-29T04:04:17.879Z,17.36
2017-08-29T04:05:17.580Z,17.24
2017-08-29T04:06:17.604Z,17.2
2017-08-29T04:07:17.831Z,17.27
2017-08-29T04:08:17.960Z,17.27
2017-08-29T04:09:17.985Z,17.22
2017-08-29T04:10:18.005Z,17.19
2017-08-29T04:11:18.040Z,17.2
2017-08-29T04:12:18.047Z,17.22
2017-08-29T04:13:18.074Z,17.23
2017-08-29T04:14:17.762Z,17.22
2017-08-29T04:15:17.466Z,17.24
2017-08-29T04:16:17.805Z,17.19
2017-08-29T04:17:17.505Z,17.22
2017-08-29T04:18:17.860Z,17.15
2017-08-29T04:19:17.869Z,17.2
2017-08-29T04:20:18.219Z,17.15
2017-08-29T04:21:17.913Z,17.19
2017-08-29T04:22:17.934Z,17.11
2017-08-29T04:23:18.276Z,17.15
2017-08-29T04:24:17.671Z,17.15
2017-08-29T04:25:18.314Z,17.15
2017-08-29T04:26:18.342Z,17.09
2017-08-29T04:27:17.724Z,17.2
2017-08-29T04:28:18.388Z,17.16
2017-08-29T04:29:18.078Z,17.15
2017-08-29T04:30:18.421Z,17.15
2017-08-29T04:31:18.121Z,17.15
2017-08-29T04:32:18.139Z,17.14
2017-08-29T04:33:18.164Z,17.09
2017-08-29T04:34:18.182Z,17.16
2017-08-29T04:35:18.524Z,17.14
2017-08-29T04:36:18.547Z,17.02
2017-08-29T04:37:18.250Z,17.09
2017-08-29T04:38:18.268Z,17.01
2017-08-29T04:39:18.610Z,17.06
2017-08-29T04:40:18.732Z,17.01
2017-08-29T04:41:18.335Z,17.08
2017-08-29T04:42:18.675Z,17.04
2017-08-29T04:43:18.695Z,16.94
2017-08-29T04:44:18.717Z,17.04
2017-08-29T04:45:18.731Z,17.02
2017-08-29T04:46:18.430Z,16.96
2017-08-29T04:47:18.459Z,17.01
2017-08-29T04:48:18.470Z,17.04
2017-08-29T04:49:18.823Z,16.99
2017-08-29T04:50:18.511Z,16.99
2017-08-29T04:51:18.541Z,17.08
2017-08-29T04:52:18.884Z,17.05
2017-08-29T04:53:18.900Z,17.08
2017-08-29T04:54:18.922Z,17.06
2017-08-29T04:55:18.639Z,17.04
2017-08-29T04:56:18.960Z,17.02
2017-08-29T04:57:18.337Z,17.01
2017-08-29T04:58:18.689Z,17.04
2017-08-29T04:59:18.701Z,17.05
2017-08-29T05:00:18.401Z,16.99
2017-08-29T05:01:19.077Z,17.06
2017-08-29T05:02:19.088Z,17.04
2017-08-29T05:05:05.214Z,17.11
2017-08-29T05:06:05.207Z,17.05
2017-08-29T05:07:05.313Z,17.06
2017-08-29T05:08:04.606Z,16.99
2017-08-29T05:09:05.346Z,17.01
2017-08-29T05:10:05.055Z,17.08
2017-08-29T05:11:04.986Z,17.04
2017-08-29T05:12:05.349Z,17.08
2017-08-29T05:13:05.156Z,17.11
2017-08-29T05:14:05.456Z,17.06
2017-08-29T05:15:05.464Z,17.08
2017-08-29T05:16:05.410Z,17.05
2017-08-29T05:17:05.188Z,17.11
2017-08-29T05:18:05.131Z,17.12
2017-08-29T05:19:05.486Z,17.05
2017-08-29T05:20:05.506Z,17.08
2017-08-29T05:21:05.525Z,17.08
2017-08-29T05:22:05.656Z,17.01
2017-08-29T05:23:04.919Z,17.02
2017-08-29T05:24:05.577Z,17.11
2017-08-29T05:25:04.958Z,17.09
2017-08-29T05:26:05.672Z,16.99
2017-08-29T05:27:04.999Z,17.04
2017-08-29T05:28:05.677Z,17.08
2017-08-29T05:29:05.040Z,17.08
2017-08-29T05:30:05.406Z,17.05
2017-08-29T05:31:05.411Z,17.11
2017-08-29T05:32:05.743Z,16.99
2017-08-29T05:33:05.199Z,17.06
2017-08-29T05:34:05.793Z,17.04
2017-08-29T05:35:05.488Z,17.09
2017-08-29T05:36:05.529Z,17.04
2017-08-29T05:37:05.851Z,17.05
2017-08-29T05:38:05.876Z,17.08
2017-08-29T05:39:05.898Z,17.14
2017-08-29T05:40:05.371Z,17.14
2017-08-29T05:41:05.287Z,17.15
2017-08-29T05:42:05.971Z,17.01
2017-08-29T05:43:05.973Z,17.19
2017-08-29T05:44:06.003Z,17.14
2017-08-29T05:45:06.016Z,17.15
2017-08-29T05:46:05.719Z,17.11
2017-08-29T05:47:05.417Z,17.09
2017-08-29T05:48:05.779Z,17.15
2017-08-29T05:49:06.105Z,17.23
2017-08-29T05:50:06.146Z,17.08
2017-08-29T05:51:05.819Z,17.2
2017-08-29T05:52:05.841Z,17.15
2017-08-29T05:53:05.866Z,17.15
2017-08-29T05:54:05.878Z,17.22
2017-08-29T05:55:05.576Z,17.26
2017-08-29T05:56:05.930Z,17.23
2017-08-29T05:57:06.271Z,17.22
2017-08-29T05:58:06.278Z,17.23
2017-08-29T05:59:06.303Z,17.26
2017-08-29T06:00:06.330Z,17.29
2017-08-29T06:01:06.351Z,17.39
2017-08-29T06:02:05.723Z,17.31
2017-08-29T06:03:06.064Z,17.31
2017-08-29T06:04:06.100Z,17.38
2017-08-29T06:05:06.107Z,17.44
2017-08-29T06:06:06.127Z,17.49
2017-08-29T06:07:06.475Z,17.41
2017-08-29T06:08:06.172Z,17.48
2017-08-29T06:09:06.284Z,17.44
2017-08-29T06:10:06.227Z,17.57
2017-08-29T06:11:06.557Z,17.6
2017-08-29T06:12:06.254Z,17.54
2017-08-29T06:13:06.273Z,17.64
2017-08-29T06:14:06.294Z,17.57
2017-08-29T06:15:06.314Z,17.54
2017-08-29T06:16:06.334Z,17.56
2017-08-29T06:17:06.356Z,17.59
2017-08-29T06:18:06.700Z,17.65
2017-08-29T06:19:06.402Z,17.64
2017-08-29T06:20:06.132Z,17.71
2017-08-29T06:21:06.989Z,17.76
2017-08-29T06:22:06.784Z,17.78
2017-08-29T06:23:06.478Z,17.68
2017-08-29T06:24:06.824Z,17.76
2017-08-29T06:25:06.527Z,17.79
2017-08-29T06:26:06.858Z,17.72
2017-08-29T06:27:06.895Z,17.87
2017-08-29T06:28:06.580Z,17.89
2017-08-29T06:29:06.806Z,17.89
2017-08-29T06:30:06.636Z,17.9
2017-08-29T06:31:07.070Z,17.97
2017-08-29T06:32:06.344Z,17.94
2017-08-29T06:33:07.009Z,17.97
2017-08-29T06:34:06.391Z,18
2017-08-29T06:35:07.057Z,18.08
2017-08-29T06:36:06.449Z,18.08
2017-08-29T06:37:06.771Z,18.04
2017-08-29T06:38:07.225Z,18.03
2017-08-29T06:39:06.819Z,18.18
2017-08-29T06:40:06.847Z,18.18
2017-08-29T06:41:06.857Z,18.18
2017-08-29T06:42:06.879Z,18.22
2017-08-29T06:43:06.893Z,18.2
2017-08-29T06:44:06.601Z,18.33
2017-08-29T06:45:07.262Z,18.33
2017-08-29T06:46:07.279Z,18.31
2017-08-29T06:47:06.984Z,18.4
2017-08-29T06:48:07.336Z,18.41
2017-08-29T06:49:07.023Z,18.38
2017-08-29T06:50:07.364Z,18.5
2017-08-29T06:51:07.062Z,18.52
2017-08-29T06:52:06.762Z,18.58
2017-08-29T06:53:07.584Z,18.56
2017-08-29T06:54:07.135Z,18.59
2017-08-29T06:55:07.158Z,18.74
2017-08-29T06:56:07.490Z,18.78
2017-08-29T06:57:07.516Z,18.77
2017-08-29T06:58:07.608Z,18.8
2017-08-29T06:59:07.293Z,18.81
2017-08-29T07:00:07.584Z,18.93
2017-08-29T07:01:07.281Z,18.95
2017-08-29T07:02:06.977Z,18.99
2017-08-29T07:03:07.655Z,18.92
2017-08-29T07:04:07.341Z,19.02
2017-08-29T07:05:07.678Z,19.11
2017-08-29T07:06:07.059Z,19.11
2017-08-29T07:07:07.485Z,19.18
2017-08-29T07:08:07.477Z,19.29
2017-08-29T07:09:07.451Z,19.29
2017-08-29T07:10:07.469Z,19.33
2017-08-29T07:11:07.486Z,19.4
2017-08-29T07:12:07.524Z,19.54
2017-08-29T07:13:07.211Z,19.49
2017-08-29T07:14:07.874Z,19.47
2017-08-29T07:15:07.901Z,19.67
2017-08-29T07:16:07.738Z,19.62
2017-08-29T07:17:07.744Z,19.73
2017-08-29T07:18:08.066Z,19.76
2017-08-29T07:19:07.663Z,19.74
2017-08-29T07:20:07.785Z,19.81
2017-08-29T07:21:08.042Z,19.95
2017-08-29T07:22:07.772Z,19.96
2017-08-29T07:23:08.078Z,20
2017-08-29T07:24:07.774Z,20.1
2017-08-29T07:25:07.786Z,20.16
2017-08-29T07:26:07.812Z,20.16
2017-08-29T07:27:07.827Z,20.25
2017-08-29T07:28:07.862Z,20.25
2017-08-29T07:29:08.198Z,20.31
2017-08-29T07:30:08.217Z,20.39
2017-08-29T07:31:07.916Z,20.44
2017-08-29T07:32:07.629Z,20.48
2017-08-29T07:33:08.299Z,20.55
2017-08-29T07:34:08.306Z,20.65
2017-08-29T07:35:08.007Z,20.66
2017-08-29T07:36:08.354Z,20.74
2017-08-29T07:37:07.727Z,20.8
2017-08-29T07:38:08.074Z,20.84
2017-08-29T07:39:08.413Z,20.95
2017-08-29T07:40:08.113Z,20.93
2017-08-29T07:41:07.813Z,20.99
2017-08-29T07:42:08.481Z,21
2017-08-29T07:43:08.180Z,21.14
2017-08-29T07:44:07.878Z,21.2
2017-08-29T07:45:08.226Z,21.24
2017-08-29T07:46:08.586Z,21.24
2017-08-29T07:47:08.367Z,21.33
2017-08-29T07:48:08.609Z,21.4
2017-08-29T07:49:08.312Z,21.48
2017-08-29T07:50:08.342Z,21.48
2017-08-29T07:51:08.367Z,21.55
2017-08-29T07:52:08.382Z,21.58
2017-08-29T07:53:08.405Z,21.7
2017-08-29T07:54:08.431Z,21.73
2017-08-29T07:55:08.442Z,21.77
2017-08-29T07:56:08.470Z,21.82
2017-08-29T07:57:08.487Z,21.95
2017-08-29T07:58:08.518Z,21.99
2017-08-29T07:59:08.534Z,22.04
2017-08-29T08:00:08.566Z,22
2017-08-29T08:01:08.902Z,22.02
2017-08-29T08:02:08.686Z,22.13
2017-08-29T08:03:08.624Z,22.22
2017-08-29T08:04:08.648Z,22.26
2017-08-29T08:05:08.347Z,22.33
2017-08-29T08:06:08.691Z,22.36
2017-08-29T08:07:09.030Z,22.47
2017-08-29T08:08:09.150Z,22.48
2017-08-29T08:09:09.080Z,22.47
2017-08-29T08:10:09.102Z,22.6
2017-08-29T08:11:08.801Z,22.65
2017-08-29T08:12:09.144Z,22.65
2017-08-29T08:13:08.530Z,22.7
2017-08-29T08:14:09.192Z,22.84
2017-08-29T08:15:08.571Z,22.85
2017-08-29T08:16:08.923Z,22.87
2017-08-29T08:17:08.938Z,22.96
2017-08-29T08:18:09.283Z,23.02
2017-08-29T08:19:09.310Z,23.1
2017-08-29T08:20:09.010Z,23.18
2017-08-29T08:21:09.033Z,23.21
2017-08-29T08:22:09.053Z,23.2
2017-08-29T08:23:09.082Z,23.28
2017-08-29T08:24:09.193Z,23.25
2017-08-29T08:25:09.216Z,23.37
2017-08-29T08:26:09.592Z,23.47
2017-08-29T08:27:09.486Z,23.56
2017-08-29T08:28:09.191Z,23.5
2017-08-29T08:29:08.895Z,23.63
2017-08-29T08:30:09.242Z,23.68
2017-08-29T08:31:09.580Z,23.68
2017-08-29T08:32:09.288Z,23.73
2017-08-29T08:33:09.626Z,23.77
2017-08-29T08:34:09.338Z,23.77
2017-08-29T08:35:09.675Z,23.88
2017-08-29T08:36:09.577Z,23.88
2017-08-29T08:37:09.403Z,23.96
2017-08-29T08:38:09.746Z,24.06
2017-08-29T08:39:09.764Z,24.1
2017-08-29T08:40:09.800Z,24.03
2017-08-29T08:41:09.817Z,24.16
2017-08-29T08:42:09.832Z,24.2
2017-08-29T08:43:09.959Z,24.26
2017-08-29T08:44:09.684Z,24.36
2017-08-29T08:45:09.904Z,24.51
2017-08-29T08:46:09.930Z,24.39
2017-08-29T08:47:09.762Z,24.55
2017-08-29T08:48:10.057Z,24.6
2017-08-29T08:49:09.686Z,24.58
2017-08-29T08:50:09.706Z,24.69
2017-08-29T08:51:09.858Z,24.69
2017-08-29T08:52:09.755Z,24.8
2017-08-29T08:53:09.777Z,24.8
2017-08-29T08:54:10.126Z,24.8
2017-08-29T08:55:09.947Z,24.85
2017-08-29T08:56:09.847Z,24.98
2017-08-29T08:57:10.257Z,25.01
2017-08-29T08:58:10.220Z,24.99
2017-08-29T08:59:09.919Z,25.1
2017-08-29T09:00:10.007Z,25.14
2017-08-29T09:01:10.288Z,25.21
2017-08-29T09:02:09.991Z,25.23
2017-08-29T09:03:10.017Z,25.29
2017-08-29T09:04:10.363Z,25.43
2017-08-29T09:05:10.385Z,25.46
2017-08-29T09:06:10.539Z,25.44
2017-08-29T09:07:10.110Z,25.55
2017-08-29T09:08:10.146Z,25.58
2017-08-29T09:09:10.487Z,25.6
2017-08-29T09:10:10.512Z,25.7
2017-08-29T09:11:09.911Z,25.66
2017-08-29T09:12:10.350Z,25.68
2017-08-29T09:13:10.310Z,25.81
2017-08-29T09:14:10.287Z,25.87
2017-08-29T09:15:10.316Z,25.91
2017-08-29T09:16:10.016Z,25.93
2017-08-29T09:17:10.364Z,26.02
2017-08-29T09:18:10.728Z,26.1
2017-08-29T09:19:10.324Z,26.15
2017-08-29T09:20:10.432Z,26.21
2017-08-29T09:21:10.457Z,26.22
2017-08-29T09:22:10.808Z,26.26
2017-08-29T09:23:10.516Z,26.38
2017-08-29T09:24:10.860Z,26.47
2017-08-29T09:25:10.884Z,26.47
2017-08-29T09:26:10.587Z,26.58
2017-08-29T09:27:10.607Z,26.58
2017-08-29T09:28:10.630Z,26.75
2017-08-29T09:29:10.660Z,26.81
2017-08-29T09:30:11.009Z,26.83
2017-08-29T09:31:10.707Z,26.9
2017-08-29T09:32:11.054Z,26.92
2017-08-29T09:33:11.084Z,26.99
2017-08-29T09:34:10.462Z,26.97
2017-08-29T09:35:10.808Z,27.17
2017-08-29T09:36:11.157Z,27.2
2017-08-29T09:37:10.858Z,27.22
2017-08-29T09:38:10.887Z,27.26
2017-08-29T09:39:10.912Z,27.42
2017-08-29T09:40:11.409Z,27.32
2017-08-29T09:41:11.280Z,27.47
2017-08-29T09:42:11.313Z,27.44
2017-08-29T09:43:11.013Z,27.51
2017-08-29T09:44:11.368Z,27.64
2017-08-29T09:45:11.192Z,27.68
2017-08-29T09:46:11.292Z,27.64
2017-08-29T09:47:11.573Z,27.77
2017-08-29T09:48:11.455Z,27.83
2017-08-29T09:49:11.167Z,27.86
2017-08-29T09:50:11.192Z,27.9
2017-08-29T09:51:11.224Z,27.96
2017-08-29T09:52:11.685Z,27.96
2017-08-29T09:53:11.679Z,28.02
2017-08-29T09:54:11.394Z,28.1
2017-08-29T09:55:11.443Z,28.22
2017-08-29T09:56:11.350Z,28.3
2017-08-29T09:57:11.381Z,28.3
2017-08-29T09:58:11.406Z,28.44
2017-08-29T09:59:11.750Z,28.47
2017-08-29T10:00:11.580Z,28.41
2017-08-29T10:01:11.701Z,28.51
2017-08-29T10:02:11.512Z,28.59
2017-08-29T10:03:11.539Z,28.63
2017-08-29T10:04:11.986Z,28.64
2017-08-29T10:05:11.579Z,28.66
2017-08-29T10:06:11.997Z,28.79
2017-08-29T10:07:11.642Z,28.86
2017-08-29T10:08:11.661Z,28.89
2017-08-29T10:09:12.015Z,28.93
2017-08-29T10:10:12.041Z,29.05
2017-08-29T10:11:12.071Z,29.02
2017-08-29T10:12:11.447Z,29.22
2017-08-29T10:13:12.126Z,29.12
2017-08-29T10:14:12.147Z,29.23
2017-08-29T10:15:12.176Z,29.29
2017-08-29T10:16:11.884Z,29.34
2017-08-29T10:17:12.234Z,29.47
2017-08-29T10:18:12.253Z,29.53
2017-08-29T10:19:11.961Z,29.51
2017-08-29T10:20:11.986Z,29.54
2017-08-29T10:21:12.346Z,29.59
2017-08-29T10:22:12.362Z,29.72
2017-08-29T10:23:12.392Z,29.72
2017-08-29T10:24:12.416Z,29.78
2017-08-29T10:25:12.457Z,29.82
2017-08-29T10:26:12.491Z,29.86
2017-08-29T10:27:12.177Z,29.94
2017-08-29T10:28:12.523Z,30.06
2017-08-29T10:29:12.233Z,30.18
2017-08-29T10:30:12.583Z,30.13
2017-08-29T10:31:12.616Z,30.25
2017-08-29T10:32:12.313Z,30.28
2017-08-29T10:33:12.020Z,30.34
2017-08-29T10:34:12.780Z,30.48
2017-08-29T10:35:12.392Z,30.44
2017-08-29T10:36:12.425Z,30.54
2017-08-29T10:37:12.454Z,30.55
2017-08-29T10:38:12.484Z,30.66
2017-08-29T10:39:12.826Z,30.7
2017-08-29T10:40:12.855Z,30.7
2017-08-29T10:41:12.241Z,30.8
2017-08-29T10:42:12.592Z,30.85
2017-08-29T10:43:12.635Z,30.9
2017-08-29T10:44:12.982Z,30.99
2017-08-29T10:45:13.006Z,31.09
2017-08-29T10:46:13.020Z,31.09
2017-08-29T10:47:13.052Z,31.14
2017-08-29T10:48:12.447Z,31.24
2017-08-29T10:49:13.121Z,31.27
2017-08-29T10:50:13.137Z,31.39
2017-08-29T10:51:13.162Z,31.44
2017-08-29T10:52:13.197Z,31.34
2017-08-29T10:53:13.228Z,31.37
2017-08-29T10:54:13.248Z,31.39
2017-08-29T10:55:12.958Z,31.55
2017-08-29T10:56:13.306Z,31.49
2017-08-29T10:57:13.344Z,31.56
2017-08-29T10:58:13.148Z,31.66
2017-08-29T10:59:13.484Z,31.62
2017-08-29T11:00:13.181Z,31.76
2017-08-29T11:01:13.191Z,31.73
2017-08-29T11:02:13.519Z,31.74
2017-08-29T11:03:13.309Z,31.81
2017-08-29T11:04:13.330Z,31.94
2017-08-29T11:05:13.247Z,31.9
2017-08-29T11:06:13.172Z,31.97
2017-08-29T11:07:13.626Z,31.96
2017-08-29T11:08:13.653Z,32
2017-08-29T11:09:13.358Z,32.18
2017-08-29T11:10:13.391Z,32.16
2017-08-29T11:11:13.806Z,32.19
2017-08-29T11:12:13.446Z,32.29
2017-08-29T11:13:13.812Z,32.34
2017-08-29T11:14:13.507Z,32.31
2017-08-29T11:15:13.891Z,32.38
2017-08-29T11:16:13.887Z,32.48
2017-08-29T11:17:13.599Z,32.43
2017-08-29T11:18:14.042Z,32.41
2017-08-29T11:19:14.058Z,32.41
2017-08-29T11:20:14.067Z,32.48
2017-08-29T11:21:14.073Z,32.67
2017-08-29T11:22:13.785Z,32.65
2017-08-29T11:23:13.792Z,32.63
2017-08-29T11:24:14.126Z,32.7
2017-08-29T11:25:13.870Z,32.71
2017-08-29T11:26:13.880Z,32.75
2017-08-29T11:27:14.211Z,32.83
2017-08-29T11:28:14.237Z,32.96
2017-08-29T11:29:13.719Z,33
2017-08-29T11:30:14.057Z,32.95
2017-08-29T11:31:14.053Z,32.95
2017-08-29T11:32:14.063Z,33.08
2017-08-29T11:33:13.773Z,33.08
2017-08-29T11:34:14.095Z,33.15
2017-08-29T11:35:14.450Z,33.19
2017-08-29T11:36:14.156Z,33.22
2017-08-29T11:37:14.199Z,33.36
2017-08-29T11:38:14.213Z,33.3
2017-08-29T11:39:14.239Z,33.3
2017-08-29T11:40:14.274Z,33.34
2017-08-29T11:41:14.337Z,33.43
2017-08-29T11:42:14.344Z,33.39
2017-08-29T11:43:14.687Z,33.47
2017-08-29T11:44:14.398Z,33.49
2017-08-29T11:45:14.423Z,33.59
2017-08-29T11:46:14.783Z,33.62
2017-08-29T11:47:14.811Z,33.61
2017-08-29T11:48:14.204Z,33.65
2017-08-29T11:49:14.869Z,33.69
2017-08-29T11:50:14.976Z,33.74
2017-08-29T11:51:14.287Z,33.74
2017-08-29T11:52:15.001Z,33.76
2017-08-29T11:53:14.988Z,33.77
2017-08-29T11:54:14.823Z,33.84
2017-08-29T11:55:14.830Z,33.83
2017-08-29T11:56:14.866Z,33.84
2017-08-29T11:57:15.121Z,33.92
2017-08-29T11:58:14.885Z,33.86
2017-08-29T11:59:15.227Z,33.96
2017-08-29T12:00:15.201Z,33.94
2017-08-29T12:01:14.984Z,34.01
2017-08-29T12:02:15.263Z,34.08
2017-08-29T12:03:15.049Z,34.18
2017-08-29T12:04:15.331Z,34.14
2017-08-29T12:05:15.366Z,34.21
2017-08-29T12:06:15.388Z,34.2
2017-08-29T12:07:15.416Z,34.23
2017-08-29T12:08:15.131Z,34.24
2017-08-29T12:09:15.163Z,34.29
2017-08-29T12:10:15.203Z,34.36
2017-08-29T12:11:15.224Z,34.33
2017-08-29T12:12:15.256Z,34.32
2017-08-29T12:13:15.279Z,34.39
2017-08-29T12:14:15.316Z,34.47
2017-08-29T12:15:15.348Z,34.4
2017-08-29T12:16:15.378Z,34.45
2017-08-29T12:17:15.408Z,34.54
2017-08-29T12:18:15.445Z,34.6
2017-08-29T12:19:15.475Z,34.6
2017-08-29T12:20:15.503Z,34.64
2017-08-29T12:21:15.534Z,34.75
2017-08-29T12:22:15.241Z,34.64
2017-08-29T12:23:15.594Z,34.61
2017-08-29T12:24:15.627Z,34.64
2017-08-29T12:25:15.974Z,34.73
2017-08-29T12:26:15.688Z,34.78
2017-08-29T12:27:15.398Z,34.83
2017-08-29T12:28:16.075Z,34.89
2017-08-29T12:29:16.111Z,34.93
2017-08-29T12:30:16.341Z,34.95
2017-08-29T12:31:16.173Z,35
2017-08-29T12:32:16.212Z,35
2017-08-29T12:33:16.239Z,35.1
2017-08-29T12:34:15.935Z,35.08
2017-08-29T12:35:16.300Z,35.07
2017-08-29T12:36:15.680Z,35.15
2017-08-29T12:37:16.054Z,35.22
2017-08-29T12:38:15.748Z,35.15
2017-08-29T12:39:16.433Z,35.18
2017-08-29T12:40:16.127Z,35.15
2017-08-29T12:41:16.168Z,35.26
2017-08-29T12:42:15.869Z,35.26
2017-08-29T12:43:16.551Z,35.3
2017-08-29T12:44:16.254Z,35.33
2017-08-29T12:45:16.289Z,35.3
2017-08-29T12:46:16.734Z,35.37
2017-08-29T12:47:16.025Z,35.36
2017-08-29T12:48:16.059Z,35.45
2017-08-29T12:49:16.418Z,35.45
2017-08-29T12:50:16.765Z,35.49
2017-08-29T12:51:16.836Z,35.49
2017-08-29T12:52:16.189Z,35.63
2017-08-29T12:53:16.647Z,35.61
2017-08-29T12:54:16.897Z,35.67
2017-08-29T12:55:16.607Z,35.66
2017-08-29T12:56:16.963Z,35.64
2017-08-29T12:57:16.666Z,35.64
2017-08-29T12:58:17.027Z,35.7